createdAt,value
2022-11-13T00:00:02.790Z,72.0
2022-11-13T00:02:02.755Z,73.0
2022-11-13T00:04:03.207Z,75.0
2022-11-13T00:06:04.240Z,72.0
2022-11-13T00:08:03.249Z,72.0
2022-11-13T00:10:02.610Z,74.0
2022-11-13T00:12:02.605Z,72.0
2022-11-13T00:14:03.257Z,73.0
2022-11-13T00:16:05.037Z,74.0
2022-11-13T00:18:03.534Z,73.0
2022-11-13T00:20:02.850Z,73.0
2022-11-13T00:22:03.158Z,74.0
2022-11-13T00:24:03.756Z,74.0
2022-11-13T00:26:07.622Z,75.0
2022-11-13T00:28:03.184Z,76.0
2022-11-13T00:30:02.731Z,74.0
2022-11-13T00:32:03.277Z,75.0
2022-11-13T00:34:19.594Z,74.0
2022-11-13T00:36:04.065Z,75.0
2022-11-13T00:38:02.545Z,75.0
2022-11-13T00:40:02.615Z,76.0
2022-11-13T00:42:03.084Z,77.0
2022-11-13T00:44:03.748Z,76.0
2022-11-13T00:46:02.746Z,75.0
2022-11-13T00:48:02.635Z,76.0
2022-11-13T00:50:02.964Z,75.0
2022-11-13T00:52:03.309Z,78.0
2022-11-13T00:54:03.391Z,78.0
2022-11-13T00:56:03.243Z,78.0
2022-11-13T00:58:04.577Z,77.0
2022-11-13T01:00:04.395Z,79.0
2022-11-13T01:02:02.597Z,80.0
2022-11-13T01:04:02.663Z,79.0
2022-11-13T01:06:11.628Z,80.0
2022-11-13T01:08:02.625Z,78.0
2022-11-13T01:10:02.611Z,79.0
2022-11-13T01:12:03.323Z,79.0
2022-11-13T01:14:02.557Z,80.0
2022-11-13T01:16:05.981Z,79.0
2022-11-13T01:18:03.352Z,78.0
2022-11-13T01:20:02.823Z,79.0
2022-11-13T01:22:02.945Z,79.0
2022-11-13T01:24:03.173Z,79.0
2022-11-13T01:26:07.149Z,80.0
2022-11-13T01:28:02.913Z,80.0
2022-11-13T01:30:03.020Z,79.0
2022-11-13T01:32:02.552Z,79.0
2022-11-13T01:34:03.158Z,80.0
2022-11-13T01:36:04.220Z,80.0
2022-11-13T01:38:03.128Z,80.0
2022-11-13T01:40:04.117Z,80.0
2022-11-13T01:42:02.826Z,81.0
2022-11-13T01:44:03.380Z,79.0
2022-11-13T01:46:13.202Z,79.0
2022-11-13T01:48:02.581Z,79.0
2022-11-13T01:50:03.797Z,80.0
2022-11-13T01:52:06.530Z,81.0
2022-11-13T01:54:10.120Z,80.0
2022-11-13T01:56:03.575Z,80.0
2022-11-13T01:58:04.552Z,80.0
2022-11-13T02:00:08.390Z,80.0
2022-11-13T02:02:03.554Z,80.0
2022-11-13T02:04:02.946Z,79.0
2022-11-13T02:06:03.756Z,79.0
2022-11-13T02:08:03.545Z,79.0
2022-11-13T02:10:02.658Z,79.0
2022-11-13T02:12:04.367Z,80.0
2022-11-13T02:14:04.750Z,80.0
2022-11-13T02:16:02.874Z,80.0
2022-11-13T02:18:04.238Z,81.0
2022-11-13T02:20:06.110Z,81.0
2022-11-13T02:22:11.883Z,81.0
2022-11-13T02:24:13.060Z,80.0
2022-11-13T02:26:03.614Z,80.0
2022-11-13T02:28:03.144Z,80.0
2022-11-13T02:30:15.902Z,80.0
2022-11-13T02:32:03.448Z,80.0
2022-11-13T02:34:03.076Z,80.0
2022-11-13T02:36:05.542Z,80.0
2022-11-13T02:38:05.249Z,80.0
2022-11-13T02:40:02.578Z,79.0
2022-11-13T02:42:03.212Z,79.0
2022-11-13T02:44:02.566Z,80.0
2022-11-13T02:46:03.207Z,80.0
2022-11-13T02:48:02.994Z,80.0
2022-11-13T02:50:03.939Z,80.0
2022-11-13T02:52:02.707Z,81.0
2022-11-13T02:54:02.959Z,81.0
2022-11-13T02:56:03.145Z,81.0
2022-11-13T02:58:03.068Z,81.0
2022-11-13T03:00:04.640Z,82.0
2022-11-13T03:02:03.321Z,82.0
2022-11-13T03:04:02.603Z,82.0
2022-11-13T03:06:02.725Z,82.0
2022-11-13T03:08:03.306Z,83.0
2022-11-13T03:10:02.690Z,82.0
2022-11-13T03:12:03.563Z,82.0
2022-11-13T03:14:02.576Z,82.0
2022-11-13T03:16:06.571Z,83.0
2022-11-13T03:18:04.592Z,83.0
2022-11-13T03:20:03.077Z,83.0
2022-11-13T03:22:02.799Z,84.0
2022-11-13T03:24:02.861Z,84.0
2022-11-13T03:26:05.971Z,84.0
2022-11-13T03:28:02.598Z,84.0
2022-11-13T03:30:02.724Z,84.0
2022-11-13T03:32:03.372Z,86.0
2022-11-13T03:34:02.644Z,86.0
2022-11-13T03:36:02.954Z,86.0
2022-11-13T03:38:02.597Z,86.0
2022-11-13T03:40:03.311Z,86.0
2022-11-13T03:42:02.716Z,85.0
2022-11-13T03:44:03.159Z,84.0
2022-11-13T03:46:02.601Z,84.0
2022-11-13T03:48:03.559Z,84.0
2022-11-13T03:50:02.596Z,84.0
2022-11-13T03:52:03.481Z,85.0
2022-11-13T03:54:03.306Z,85.0
2022-11-13T03:56:03.307Z,86.0
2022-11-13T03:58:02.553Z,85.0
2022-11-13T04:00:03.430Z,86.0
2022-11-13T04:02:02.647Z,85.0
2022-11-13T04:04:04.250Z,85.0
2022-11-13T04:06:03.177Z,85.0
2022-11-13T04:08:02.567Z,86.0
2022-11-13T04:10:03.220Z,86.0
2022-11-13T04:12:02.559Z,86.0
2022-11-13T04:14:02.563Z,86.0
2022-11-13T04:16:02.963Z,86.0
2022-11-13T04:18:03.219Z,86.0
2022-11-13T04:20:03.960Z,86.0
2022-11-13T04:22:02.599Z,86.0
2022-11-13T04:24:02.555Z,86.0
2022-11-13T04:26:03.128Z,85.0
2022-11-13T04:28:02.676Z,85.0
2022-11-13T04:30:03.068Z,86.0
2022-11-13T04:32:03.077Z,86.0
2022-11-13T04:34:02.804Z,86.0
2022-11-13T04:36:03.975Z,86.0
2022-11-13T04:38:02.656Z,87.0
2022-11-13T04:40:03.372Z,87.0
2022-11-13T04:42:12.193Z,87.0
2022-11-13T04:44:03.378Z,87.0
2022-11-13T04:46:02.580Z,87.0
2022-11-13T04:48:02.817Z,87.0
2022-11-13T04:50:02.606Z,87.0
2022-11-13T04:52:02.684Z,87.0
2022-11-13T04:54:02.642Z,87.0
2022-11-13T04:56:02.832Z,87.0
2022-11-13T04:58:02.590Z,87.0
2022-11-13T05:00:04.848Z,87.0
2022-11-13T05:02:02.647Z,88.0
2022-11-13T05:04:02.792Z,88.0
2022-11-13T05:06:04.463Z,88.0
2022-11-13T05:08:02.873Z,88.0
2022-11-13T05:10:02.589Z,88.0
2022-11-13T05:12:02.735Z,89.0
2022-11-13T05:14:04.737Z,88.0
2022-11-13T05:16:04.682Z,88.0
2022-11-13T05:18:03.118Z,88.0
2022-11-13T05:20:03.753Z,87.0
2022-11-13T05:22:03.845Z,88.0
2022-11-13T05:24:02.607Z,88.0
2022-11-13T05:26:04.620Z,88.0
2022-11-13T05:28:03.172Z,88.0
2022-11-13T05:30:02.515Z,88.0
2022-11-13T05:32:03.462Z,88.0
2022-11-13T05:34:05.929Z,88.0
2022-11-13T05:36:03.519Z,88.0
2022-11-13T05:38:02.643Z,88.0
2022-11-13T05:40:02.735Z,88.0
2022-11-13T05:42:02.550Z,88.0
2022-11-13T05:44:03.283Z,88.0
2022-11-13T05:46:05.230Z,88.0
2022-11-13T05:48:02.529Z,88.0
2022-11-13T05:50:03.361Z,88.0
2022-11-13T05:52:02.586Z,88.0
2022-11-13T05:54:03.351Z,89.0
2022-11-13T05:56:04.008Z,89.0
2022-11-13T05:58:02.764Z,89.0
2022-11-13T06:00:02.615Z,89.0
2022-11-13T06:02:03.196Z,89.0
2022-11-13T06:04:03.670Z,89.0
2022-11-13T06:06:03.464Z,89.0
2022-11-13T06:08:02.781Z,89.0
2022-11-13T06:10:03.205Z,89.0
2022-11-13T06:12:02.574Z,89.0
2022-11-13T06:14:02.615Z,90.0
2022-11-13T06:16:05.839Z,90.0
2022-11-13T06:18:03.120Z,90.0
2022-11-13T06:20:03.330Z,90.0
2022-11-13T06:22:02.637Z,90.0
2022-11-13T06:24:03.533Z,90.0
2022-11-13T06:26:04.751Z,90.0
2022-11-13T06:28:02.638Z,90.0
2022-11-13T06:30:03.545Z,90.0
2022-11-13T06:32:02.935Z,90.0
2022-11-13T06:34:04.200Z,90.0
2022-11-13T06:36:04.311Z,90.0
2022-11-13T06:38:02.596Z,90.0
2022-11-13T06:40:02.624Z,90.0
2022-11-13T06:42:02.948Z,90.0
2022-11-13T06:44:03.755Z,90.0
2022-11-13T06:46:06.114Z,90.0
2022-11-13T06:48:03.074Z,90.0
2022-11-13T06:50:02.601Z,90.0
2022-11-13T06:52:03.353Z,90.0
2022-11-13T06:54:02.540Z,90.0
2022-11-13T06:56:06.818Z,90.0
2022-11-13T06:58:02.596Z,90.0
2022-11-13T07:00:02.591Z,90.0
2022-11-13T07:02:02.610Z,90.0
2022-11-13T07:04:04.198Z,90.0
2022-11-13T07:06:04.271Z,90.0
2022-11-13T07:08:02.930Z,90.0
2022-11-13T07:10:02.556Z,90.0
2022-11-13T07:12:02.543Z,90.0
2022-11-13T07:14:03.160Z,91.0
2022-11-13T07:16:15.828Z,91.0
2022-11-13T07:18:03.856Z,91.0
2022-11-13T07:20:03.554Z,91.0
2022-11-13T07:22:03.120Z,91.0
2022-11-13T07:24:02.526Z,92.0
2022-11-13T07:26:03.355Z,91.0
2022-11-13T07:28:03.740Z,91.0
2022-11-13T07:30:04.108Z,91.0
2022-11-13T07:32:02.884Z,92.0
2022-11-13T07:34:02.605Z,92.0
2022-11-13T07:36:02.591Z,92.0
2022-11-13T07:38:02.542Z,92.0
2022-11-13T07:40:03.430Z,92.0
2022-11-13T07:42:02.879Z,92.0
2022-11-13T07:44:07.935Z,93.0
2022-11-13T07:46:02.997Z,93.0
2022-11-13T07:48:03.847Z,93.0
2022-11-13T07:50:06.945Z,93.0
2022-11-13T07:52:03.167Z,92.0
2022-11-13T07:54:02.800Z,93.0
2022-11-13T07:56:03.030Z,92.0
2022-11-13T07:58:04.584Z,92.0
2022-11-13T08:00:02.582Z,92.0
2022-11-13T08:02:03.328Z,92.0
2022-11-13T08:04:03.247Z,92.0
2022-11-13T08:06:06.316Z,92.0
2022-11-13T08:08:03.713Z,92.0
2022-11-13T08:10:02.554Z,92.0
2022-11-13T08:12:03.093Z,92.0
2022-11-13T08:14:03.449Z,92.0
2022-11-13T08:16:03.483Z,92.0
2022-11-13T08:18:04.263Z,92.0
2022-11-13T08:20:03.472Z,92.0
2022-11-13T08:22:02.508Z,92.0
2022-11-13T08:24:02.524Z,92.0
2022-11-13T08:26:06.191Z,92.0
2022-11-13T08:28:02.540Z,92.0
2022-11-13T08:30:02.613Z,92.0
2022-11-13T08:32:02.711Z,92.0
2022-11-13T08:34:03.080Z,92.0
2022-11-13T08:36:02.534Z,92.0
2022-11-13T08:38:03.068Z,92.0
2022-11-13T08:40:03.332Z,92.0
2022-11-13T08:42:02.867Z,92.0
2022-11-13T08:44:02.826Z,92.0
2022-11-13T08:46:03.338Z,92.0
2022-11-13T08:48:04.290Z,92.0
2022-11-13T08:50:02.683Z,92.0
2022-11-13T08:52:02.625Z,92.0
2022-11-13T08:54:02.540Z,92.0
2022-11-13T08:56:03.409Z,92.0
2022-11-13T08:58:04.818Z,92.0
2022-11-13T09:00:02.701Z,92.0
2022-11-13T09:02:02.496Z,92.0
2022-11-13T09:04:03.340Z,92.0
2022-11-13T09:06:05.705Z,91.0
2022-11-13T09:08:03.208Z,92.0
2022-11-13T09:10:02.694Z,92.0
2022-11-13T09:12:02.566Z,92.0
2022-11-13T09:14:02.564Z,92.0
2022-11-13T09:16:04.318Z,92.0
2022-11-13T09:18:04.693Z,92.0
2022-11-13T09:20:04.550Z,92.0
2022-11-13T09:22:03.181Z,92.0
2022-11-13T09:24:03.673Z,92.0
2022-11-13T09:26:04.192Z,92.0
2022-11-13T09:28:04.903Z,92.0
2022-11-13T09:30:03.172Z,92.0
2022-11-13T09:32:02.732Z,92.0
2022-11-13T09:34:02.589Z,92.0
2022-11-13T09:36:02.669Z,91.0
2022-11-13T09:38:10.516Z,92.0
2022-11-13T09:40:02.584Z,92.0
2022-11-13T09:42:12.245Z,92.0
2022-11-13T09:44:06.421Z,91.0
2022-11-13T09:46:08.533Z,91.0
2022-11-13T09:48:13.338Z,91.0
2022-11-13T09:50:11.467Z,91.0
2022-11-13T09:52:10.818Z,91.0
2022-11-13T09:54:06.718Z,91.0
2022-11-13T09:56:16.008Z,91.0
2022-11-13T09:58:12.591Z,92.0
2022-11-13T10:00:10.697Z,91.0
2022-11-13T10:02:16.368Z,91.0
2022-11-13T10:04:11.973Z,92.0
2022-11-13T10:06:10.875Z,92.0
2022-11-13T10:08:07.710Z,92.0
2022-11-13T10:10:21.804Z,92.0
2022-11-13T10:12:07.067Z,91.0
2022-11-13T10:14:10.030Z,91.0
2022-11-13T10:16:17.254Z,91.0
2022-11-13T10:18:08.195Z,91.0
2022-11-13T10:20:05.925Z,91.0
2022-11-13T10:22:32.048Z,91.0
2022-11-13T10:24:14.461Z,91.0
2022-11-13T10:26:13.505Z,91.0
2022-11-13T10:28:43.317Z,91.0
2022-11-13T10:30:03.741Z,91.0
2022-11-13T10:32:16.926Z,91.0
2022-11-13T10:34:02.885Z,91.0
2022-11-13T10:36:14.643Z,91.0
2022-11-13T10:38:08.203Z,91.0
2022-11-13T10:40:02.963Z,91.0
2022-11-13T10:42:02.923Z,91.0
2022-11-13T10:44:04.974Z,91.0
2022-11-13T10:46:05.791Z,92.0
2022-11-13T10:48:04.967Z,92.0
2022-11-13T10:50:11.635Z,92.0
2022-11-13T10:52:02.714Z,92.0
2022-11-13T10:54:20.680Z,92.0
2022-11-13T10:56:03.073Z,92.0
2022-11-13T10:58:12.112Z,92.0
2022-11-13T11:00:04.056Z,92.0
2022-11-13T11:02:15.862Z,92.0
2022-11-13T11:04:05.445Z,92.0
2022-11-13T11:06:05.109Z,92.0
2022-11-13T11:08:10.580Z,92.0
2022-11-13T11:10:02.667Z,92.0
2022-11-13T11:12:19.623Z,92.0
2022-11-13T11:14:18.781Z,92.0
2022-11-13T11:16:04.918Z,92.0
2022-11-13T11:18:05.976Z,92.0
2022-11-13T11:20:07.525Z,92.0
2022-11-13T11:22:11.883Z,92.0
2022-11-13T11:24:10.234Z,92.0
2022-11-13T11:26:08.613Z,92.0
2022-11-13T11:28:08.781Z,92.0
2022-11-13T11:30:07.064Z,92.0
2022-11-13T11:32:11.523Z,92.0
2022-11-13T11:34:15.543Z,92.0
2022-11-13T11:36:15.546Z,92.0
2022-11-13T11:38:09.606Z,92.0
2022-11-13T11:40:07.558Z,92.0
2022-11-13T11:42:16.046Z,92.0
2022-11-13T11:44:07.077Z,91.0
2022-11-13T11:46:02.719Z,91.0
2022-11-13T11:48:05.850Z,91.0
2022-11-13T11:50:05.207Z,91.0
2022-11-13T11:52:14.248Z,91.0
2022-11-13T11:54:18.336Z,91.0
2022-11-13T11:56:12.787Z,91.0
2022-11-13T11:58:16.592Z,91.0
2022-11-13T12:00:06.374Z,91.0
2022-11-13T12:02:21.605Z,91.0
2022-11-13T12:04:17.728Z,91.0
2022-11-13T12:06:13.879Z,91.0
2022-11-13T12:08:14.241Z,91.0
2022-11-13T12:10:10.415Z,91.0
2022-11-13T12:12:13.260Z,91.0
2022-11-13T12:14:10.786Z,91.0
2022-11-13T12:16:09.434Z,91.0
2022-11-13T12:18:09.989Z,91.0
2022-11-13T12:20:10.051Z,91.0
2022-11-13T12:22:10.488Z,91.0
2022-11-13T12:24:19.119Z,91.0
2022-11-13T12:26:10.797Z,91.0
2022-11-13T12:28:14.737Z,91.0
2022-11-13T12:30:09.660Z,91.0
2022-11-13T12:32:13.047Z,92.0
2022-11-13T12:34:12.209Z,92.0
2022-11-13T12:36:04.848Z,92.0
2022-11-13T12:38:14.167Z,91.0
2022-11-13T12:40:07.559Z,91.0
2022-11-13T12:42:11.943Z,91.0
2022-11-13T12:44:21.601Z,91.0
2022-11-13T12:46:08.352Z,92.0
2022-11-13T12:48:09.702Z,91.0
2022-11-13T12:50:06.717Z,92.0
2022-11-13T12:52:05.570Z,92.0
2022-11-13T12:54:02.519Z,91.0
2022-11-13T12:56:04.367Z,91.0
2022-11-13T12:58:10.767Z,91.0
2022-11-13T13:00:21.656Z,91.0
2022-11-13T13:02:21.625Z,90.0
2022-11-13T13:04:19.124Z,91.0
2022-11-13T13:06:14.474Z,91.0
2022-11-13T13:08:21.586Z,91.0
2022-11-13T13:10:14.393Z,91.0
2022-11-13T13:12:14.087Z,91.0
2022-11-13T13:14:21.697Z,91.0
2022-11-13T13:16:06.478Z,91.0
2022-11-13T13:18:06.305Z,91.0
2022-11-13T13:20:07.140Z,92.0
2022-11-13T13:22:02.695Z,92.0
2022-11-13T13:24:10.435Z,92.0
2022-11-13T13:26:03.988Z,91.0
2022-11-13T13:28:13.268Z,91.0
2022-11-13T13:30:16.469Z,91.0
2022-11-13T13:32:14.548Z,91.0
2022-11-13T13:34:18.926Z,91.0
2022-11-13T13:36:15.914Z,91.0
2022-11-13T13:38:10.765Z,91.0
2022-11-13T13:40:19.665Z,91.0
2022-11-13T13:42:21.589Z,91.0
2022-11-13T13:44:21.582Z,91.0
2022-11-13T13:46:14.445Z,91.0
2022-11-13T13:48:08.418Z,91.0
2022-11-13T13:50:07.584Z,91.0
2022-11-13T13:52:04.921Z,91.0
2022-11-13T13:54:06.971Z,91.0
2022-11-13T13:56:05.177Z,91.0
2022-11-13T13:58:07.438Z,91.0
2022-11-13T14:00:03.947Z,91.0
2022-11-13T14:02:05.222Z,91.0
2022-11-13T14:04:12.589Z,91.0
2022-11-13T14:06:19.395Z,91.0
2022-11-13T14:08:07.075Z,91.0
2022-11-13T14:10:09.665Z,91.0
2022-11-13T14:12:09.610Z,91.0
2022-11-13T14:14:09.390Z,91.0
2022-11-13T14:16:03.751Z,91.0
2022-11-13T14:18:08.743Z,91.0
2022-11-13T14:20:03.040Z,91.0
2022-11-13T14:22:06.054Z,91.0
2022-11-13T14:24:03.241Z,91.0
2022-11-13T14:26:05.349Z,91.0
2022-11-13T14:28:02.780Z,91.0
2022-11-13T14:30:03.912Z,91.0
2022-11-13T14:32:06.485Z,91.0
2022-11-13T14:34:11.274Z,92.0
2022-11-13T14:36:03.997Z,91.0
2022-11-13T14:38:02.698Z,91.0
2022-11-13T14:40:06.149Z,91.0
2022-11-13T14:42:03.289Z,92.0
2022-11-13T14:44:03.993Z,92.0
2022-11-13T14:46:04.927Z,92.0
2022-11-13T14:48:13.597Z,92.0
2022-11-13T14:50:19.456Z,92.0
2022-11-13T14:52:03.319Z,92.0
2022-11-13T14:54:08.691Z,92.0
2022-11-13T14:56:05.050Z,92.0
2022-11-13T14:58:02.966Z,92.0
2022-11-13T15:00:12.711Z,92.0
2022-11-13T15:02:02.596Z,92.0
2022-11-13T15:04:02.872Z,92.0
2022-11-13T15:06:03.383Z,92.0
2022-11-13T15:08:02.601Z,92.0
2022-11-13T15:10:03.040Z,92.0
2022-11-13T15:12:02.552Z,92.0
2022-11-13T15:14:04.627Z,92.0
2022-11-13T15:16:03.611Z,92.0
2022-11-13T15:20:08.316Z,92.0
2022-11-13T15:22:26.071Z,92.0
2022-11-13T15:24:02.821Z,92.0
2022-11-13T15:26:03.124Z,93.0
2022-11-13T15:28:02.574Z,93.0
2022-11-13T15:30:02.864Z,93.0
2022-11-13T15:32:03.296Z,93.0
2022-11-13T15:34:03.245Z,93.0
2022-11-13T15:36:02.529Z,94.0
2022-11-13T15:38:02.532Z,94.0
2022-11-13T15:40:04.567Z,94.0
2022-11-13T15:42:05.205Z,94.0
2022-11-13T15:44:10.395Z,94.0
2022-11-13T15:46:02.585Z,94.0
2022-11-13T15:48:02.548Z,94.0
2022-11-13T15:50:14.794Z,94.0
2022-11-13T15:52:02.596Z,94.0
2022-11-13T15:54:10.750Z,94.0
2022-11-13T15:56:04.762Z,94.0
2022-11-13T15:58:03.365Z,94.0
2022-11-13T16:00:02.607Z,94.0
2022-11-13T16:02:02.973Z,94.0
2022-11-13T16:04:05.220Z,94.0
2022-11-13T16:06:03.393Z,94.0
2022-11-13T16:08:02.749Z,94.0
2022-11-13T16:10:02.673Z,94.0
2022-11-13T16:12:03.006Z,94.0
2022-11-13T16:14:02.538Z,94.0
2022-11-13T16:16:03.166Z,94.0
2022-11-13T16:18:02.726Z,94.0
2022-11-13T16:20:07.071Z,94.0
2022-11-13T16:22:02.599Z,94.0
2022-11-13T16:24:02.914Z,94.0
2022-11-13T16:26:04.144Z,94.0
2022-11-13T16:28:02.570Z,94.0
2022-11-13T16:30:06.958Z,94.0
2022-11-13T16:32:03.283Z,94.0
2022-11-13T16:34:02.555Z,94.0
2022-11-13T16:36:04.558Z,94.0
2022-11-13T16:38:02.901Z,95.0
2022-11-13T16:40:02.605Z,94.0
2022-11-13T16:42:03.529Z,94.0
2022-11-13T16:44:02.720Z,94.0
2022-11-13T16:46:03.183Z,94.0
2022-11-13T16:48:03.457Z,95.0
2022-11-13T16:50:02.580Z,94.0
2022-11-13T16:52:03.114Z,94.0
2022-11-13T16:54:02.535Z,94.0
2022-11-13T16:56:02.830Z,95.0
2022-11-13T16:58:04.409Z,95.0
2022-11-13T17:00:05.839Z,94.0
2022-11-13T17:02:03.196Z,94.0
2022-11-13T17:04:02.573Z,95.0
2022-11-13T17:06:02.600Z,95.0
2022-11-13T17:08:02.976Z,95.0
2022-11-13T17:10:29.559Z,94.0
2022-11-13T17:12:02.554Z,94.0
2022-11-13T17:14:03.684Z,94.0
2022-11-13T17:16:02.639Z,94.0
2022-11-13T17:18:02.556Z,93.0
2022-11-13T17:20:02.797Z,94.0
2022-11-13T17:22:02.827Z,94.0
2022-11-13T17:24:04.855Z,93.0
2022-11-13T17:26:04.283Z,93.0
2022-11-13T17:28:02.559Z,93.0
2022-11-13T17:30:03.008Z,91.0
2022-11-13T17:32:02.965Z,91.0
2022-11-13T17:34:02.594Z,91.0
2022-11-13T17:36:03.208Z,91.0
2022-11-13T17:38:03.123Z,91.0
2022-11-13T17:40:02.610Z,90.0
2022-11-13T17:42:02.556Z,90.0
2022-11-13T17:44:02.934Z,90.0
2022-11-13T17:46:02.659Z,90.0
2022-11-13T17:48:02.751Z,89.0
2022-11-13T17:50:06.963Z,89.0
2022-11-13T17:52:02.571Z,88.0
2022-11-13T17:54:02.618Z,88.0
2022-11-13T17:56:06.823Z,89.0
2022-11-13T17:58:03.159Z,88.0
2022-11-13T18:00:02.998Z,88.0
2022-11-13T18:02:02.890Z,88.0
2022-11-13T18:04:02.590Z,88.0
2022-11-13T18:06:06.198Z,88.0
2022-11-13T18:08:04.418Z,86.0
2022-11-13T18:10:02.712Z,85.0
2022-11-13T18:12:02.748Z,84.0
2022-11-13T18:14:02.537Z,85.0
2022-11-13T18:16:05.705Z,84.0
2022-11-13T18:18:02.827Z,84.0
2022-11-13T18:20:02.899Z,85.0
2022-11-13T18:22:02.623Z,83.0
2022-11-13T18:24:05.615Z,84.0
2022-11-13T18:26:07.482Z,84.0
2022-11-13T18:28:02.654Z,83.0
2022-11-13T18:30:02.764Z,82.0
2022-11-13T18:32:02.767Z,83.0
2022-11-13T18:34:04.411Z,84.0
2022-11-13T18:36:03.555Z,84.0
2022-11-13T18:38:02.599Z,83.0
2022-11-13T18:40:03.751Z,82.0
2022-11-13T18:42:03.481Z,83.0
2022-11-13T18:44:02.837Z,84.0
2022-11-13T18:46:04.676Z,82.0
2022-11-13T18:48:02.552Z,81.0
2022-11-13T18:50:02.577Z,82.0
2022-11-13T18:52:02.768Z,81.0
2022-11-13T18:54:09.457Z,82.0
2022-11-13T18:56:04.708Z,81.0
2022-11-13T18:58:02.559Z,81.0
2022-11-13T19:00:02.621Z,80.0
2022-11-13T19:02:02.682Z,80.0
2022-11-13T19:04:22.456Z,80.0
2022-11-13T19:06:02.609Z,80.0
2022-11-13T19:08:02.718Z,80.0
2022-11-13T19:10:02.785Z,81.0
2022-11-13T19:12:02.771Z,79.0
2022-11-13T19:14:03.627Z,79.0
2022-11-13T19:16:08.663Z,78.0
2022-11-13T19:18:02.586Z,81.0
2022-11-13T19:20:02.761Z,79.0
2022-11-13T19:22:03.122Z,78.0
2022-11-13T19:24:03.846Z,79.0
2022-11-13T19:26:03.210Z,79.0
2022-11-13T19:28:02.986Z,81.0
2022-11-13T19:30:02.576Z,82.0
2022-11-13T19:32:02.724Z,79.0
2022-11-13T19:34:05.651Z,80.0
2022-11-13T19:36:07.939Z,79.0
2022-11-13T19:38:02.767Z,77.0
2022-11-13T19:40:02.700Z,76.0
2022-11-13T19:42:02.750Z,77.0
2022-11-13T19:44:02.774Z,76.0
2022-11-13T19:46:04.669Z,75.0
2022-11-13T19:48:02.556Z,74.0
2022-11-13T19:50:02.610Z,74.0
2022-11-13T19:52:02.836Z,76.0
2022-11-13T19:54:02.586Z,74.0
2022-11-13T19:56:03.812Z,74.0
2022-11-13T19:58:03.082Z,75.0
2022-11-13T20:00:02.844Z,74.0
2022-11-13T20:02:02.613Z,73.0
2022-11-13T20:04:04.679Z,74.0
2022-11-13T20:06:02.632Z,72.0
2022-11-13T20:08:02.930Z,73.0
2022-11-13T20:10:03.193Z,74.0
2022-11-13T20:12:02.544Z,74.0
2022-11-13T20:14:02.559Z,75.0
2022-11-13T20:16:03.117Z,75.0
2022-11-13T20:18:03.335Z,76.0
2022-11-13T20:20:02.786Z,75.0
2022-11-13T20:22:02.582Z,76.0
2022-11-13T20:24:02.822Z,76.0
2022-11-13T20:26:05.063Z,76.0
2022-11-13T20:28:03.203Z,75.0
2022-11-13T20:30:03.235Z,75.0
2022-11-13T20:32:03.405Z,75.0
2022-11-13T20:34:02.657Z,76.0
2022-11-13T20:36:03.702Z,75.0
2022-11-13T20:38:03.357Z,74.0
2022-11-13T20:40:03.202Z,74.0
2022-11-13T20:42:02.713Z,75.0
2022-11-13T20:44:03.830Z,75.0
2022-11-13T20:46:04.352Z,75.0
2022-11-13T20:48:02.950Z,74.0
2022-11-13T20:50:02.731Z,74.0
2022-11-13T20:52:04.253Z,74.0
2022-11-13T20:54:03.723Z,74.0
2022-11-13T20:56:02.923Z,74.0
2022-11-13T20:58:02.696Z,75.0
2022-11-13T21:00:02.973Z,74.0
2022-11-13T21:02:02.632Z,75.0
2022-11-13T21:04:03.442Z,75.0
2022-11-13T21:06:02.579Z,75.0
2022-11-13T21:08:02.748Z,75.0
2022-11-13T21:10:02.676Z,75.0
2022-11-13T21:12:03.037Z,75.0
2022-11-13T21:14:02.559Z,75.0
2022-11-13T21:16:06.374Z,75.0
2022-11-13T21:18:02.539Z,75.0
2022-11-13T21:20:03.356Z,75.0
2022-11-13T21:22:03.312Z,74.0
2022-11-13T21:24:02.731Z,75.0
2022-11-13T21:26:04.545Z,74.0
2022-11-13T21:28:02.765Z,73.0
2022-11-13T21:30:03.318Z,75.0
2022-11-13T21:32:02.743Z,75.0
2022-11-13T21:34:03.643Z,74.0
2022-11-13T21:36:07.836Z,73.0
2022-11-13T21:38:05.464Z,74.0
2022-11-13T21:40:02.614Z,73.0
2022-11-13T21:42:02.547Z,75.0
2022-11-13T21:44:07.664Z,74.0
2022-11-13T21:46:04.241Z,74.0
2022-11-13T21:48:02.748Z,76.0
2022-11-13T21:50:02.571Z,75.0
2022-11-13T21:52:02.566Z,76.0
2022-11-13T21:54:02.784Z,75.0
2022-11-13T21:56:03.483Z,77.0
2022-11-13T21:58:02.607Z,77.0
2022-11-13T22:00:02.848Z,76.0
2022-11-13T22:02:02.631Z,76.0
2022-11-13T22:04:03.178Z,75.0
2022-11-13T22:06:13.879Z,75.0
2022-11-13T22:08:02.563Z,75.0
2022-11-13T22:10:07.965Z,76.0
2022-11-13T22:12:02.788Z,75.0
2022-11-13T22:14:04.229Z,77.0
2022-11-13T22:16:04.244Z,76.0
2022-11-13T22:18:03.502Z,76.0
2022-11-13T22:20:02.640Z,75.0
2022-11-13T22:22:02.629Z,76.0
2022-11-13T22:24:03.930Z,75.0
2022-11-13T22:26:04.234Z,76.0
2022-11-13T22:28:02.931Z,77.0
2022-11-13T22:30:03.005Z,78.0
2022-11-13T22:32:02.576Z,76.0
2022-11-13T22:34:03.736Z,76.0
2022-11-13T22:36:03.477Z,76.0
2022-11-13T22:38:03.019Z,77.0
2022-11-13T22:40:02.594Z,76.0
2022-11-13T22:42:03.332Z,76.0
2022-11-13T22:44:05.181Z,76.0
2022-11-13T22:46:03.505Z,77.0
2022-11-13T22:48:02.746Z,77.0
2022-11-13T22:50:03.125Z,77.0
2022-11-13T22:52:02.633Z,78.0
2022-11-13T22:54:05.980Z,79.0
2022-11-13T22:56:04.872Z,79.0
2022-11-13T22:58:02.562Z,79.0
2022-11-13T23:00:08.704Z,78.0
2022-11-13T23:02:03.182Z,79.0
2022-11-13T23:04:08.805Z,79.0
2022-11-13T23:06:03.471Z,78.0
2022-11-13T23:08:03.111Z,80.0
2022-11-13T23:10:02.635Z,80.0
2022-11-13T23:12:02.729Z,80.0
2022-11-13T23:14:05.304Z,79.0
2022-11-13T23:16:03.457Z,78.0
2022-11-13T23:18:07.144Z,80.0
2022-11-13T23:20:02.560Z,81.0
2022-11-13T23:22:03.250Z,80.0
2022-11-13T23:24:02.741Z,80.0
2022-11-13T23:26:03.405Z,80.0
2022-11-13T23:28:02.883Z,79.0
2022-11-13T23:30:03.376Z,80.0
2022-11-13T23:32:03.096Z,81.0
2022-11-13T23:34:03.195Z,81.0
2022-11-13T23:36:03.715Z,80.0
2022-11-13T23:38:02.547Z,81.0
2022-11-13T23:40:02.816Z,82.0
2022-11-13T23:42:02.735Z,80.0
2022-11-13T23:44:08.752Z,82.0
2022-11-13T23:46:02.765Z,82.0
2022-11-13T23:48:03.680Z,83.0
2022-11-13T23:50:02.591Z,82.0
2022-11-13T23:54:03.138Z,82.0
2022-11-13T23:56:02.620Z,82.0
2022-11-13T23:58:04.839Z,82.0
